Time;durP1;ratioP1;P1;durP2;ratioP2;P2;SDS_P1;SDS_P2;PMS_P1;PMS_P2;Temp;Humidity;BMP_temperature;BMP_pressure;BME280_temperature;BME280_humidity;BME280_pressure;Samples;Min_cycle;Max_cycle;Signal;HPM_P1;HPM_P2
2022/08/21 00:01:43;;;;;;;;;;;;;;;16.61;76.42;101482.19;3582812;40;20219;-64
2022/08/21 00:04:09;;;;;;;;;;;;;;;16.60;76.12;101480.47;3582800;40;19932;-64
2022/08/21 00:06:36;;;;;;;;;;;;;;;16.61;76.87;101475.91;3585107;40;19928;-63
2022/08/21 00:09:06;;;;;;;;;;;;;;;16.59;75.75;101472.47;3584166;40;19967;-64
2022/08/21 00:11:33;;;;;;;;;;;;;;;16.57;76.15;101478.00;3582310;40;20221;-63
2022/08/21 00:13:59;;;;;;;;;;;;;;;16.54;76.95;101471.94;3583183;40;20042;-64
2022/08/21 00:16:24;;;;;;;;;;;;;;;16.53;76.56;101470.22;3585967;40;19948;-64
2022/08/21 00:18:50;;;;;;;;;;;;;;;16.52;76.32;101463.03;3586565;40;20053;-64
2022/08/21 00:21:15;;;;;;;;;;;;;;;16.50;76.39;101468.59;3586004;40;19931;-63
2022/08/21 00:23:42;;;;;;;;;;;;;;;16.31;76.82;101452.88;3584009;40;20012;-64
2022/08/21 00:26:08;;;;;;;;;;;;;;;16.38;76.57;101469.53;3586201;40;19947;-64
2022/08/21 00:28:34;;;;;;;;;;;;;;;16.35;76.81;101472.47;3585015;40;19935;-63
2022/08/21 00:31:00;;;;;;;;;;;;;;;16.30;76.63;101462.00;3584008;40;19944;-64
2022/08/21 00:33:26;;;;;;;;;;;;;;;16.28;76.58;101463.94;3587704;40;19945;-64
2022/08/21 00:35:52;;;;;;;;;;;;;;;16.10;76.73;101443.63;3583901;40;20017;-63
2022/08/21 00:38:18;;;;;;;;;;;;;;;16.06;76.99;101431.28;3586717;40;19932;-64
2022/08/21 00:40:46;;;;;;;;;;;;;;;16.21;77.18;101462.69;3586167;40;20297;-64
2022/08/21 00:43:16;;;;;;;;;;;;;;;16.19;77.13;101454.66;3584884;40;19998;-64
2022/08/21 00:45:42;;;;;;;;;;;;;;;16.17;77.18;101448.47;3587615;40;19944;-64
2022/08/21 00:48:08;;;;;;;;;;;;;;;16.15;77.21;101452.28;3585966;40;20286;-64
2022/08/21 00:50:39;;;;;;;;;;;;;;;16.11;77.20;101454.38;3584362;40;19948;-63
2022/08/21 00:53:07;;;;;;;;;;;;;;;16.11;77.32;101446.25;3585694;39;19935;-64
2022/08/21 00:55:35;;;;;;;;;;;;;;;15.81;76.87;101403.28;3587330;40;20551;-64
2022/08/21 00:58:01;;;;;;;;;;;;;;;16.06;76.73;101453.84;3587961;40;19939;-63
2022/08/21 01:00:32;;;;;;;;;;;;;;;16.06;77.05;101458.41;3585143;40;20009;-63
2022/08/21 01:02:59;;;;;;;;;;;;;;;16.02;77.46;101455.91;3585845;40;20189;-64
2022/08/21 01:05:26;;;;;;;;;;;;;;;16.00;77.41;101455.16;3585941;40;19931;-64
2022/08/21 01:07:53;;;;;;;;;;;;;;;16.02;77.45;101458.63;3584916;40;19938;-63
2022/08/21 01:10:19;;;;;;;;;;;;;;;16.00;76.98;101454.31;3585999;40;19975;-64
2022/08/21 01:12:45;;;;;;;;;;;;;;;15.84;76.84;101427.47;3586552;40;20029;-64
2022/08/21 01:15:15;;;;;;;;;;;;;;;15.98;77.76;101457.16;3586181;40;19944;-64
2022/08/21 01:17:40;;;;;;;;;;;;;;;15.87;77.06;101442.63;3586607;40;20024;-64
2022/08/21 01:20:10;;;;;;;;;;;;;;;15.97;77.47;101455.38;3585958;40;20179;-63
2022/08/21 01:22:36;;;;;;;;;;;;;;;16.00;76.81;101455.16;3585608;40;20140;-64
2022/08/21 01:25:10;;;;;;;;;;;;;;;15.92;77.52;101449.47;3585949;40;20224;-64
2022/08/21 01:27:36;;;;;;;;;;;;;;;15.90;77.41;101446.00;3586727;40;19936;-64
2022/08/21 01:30:11;;;;;;;;;;;;;;;15.88;77.53;101438.94;3587475;40;19932;-63
2022/08/21 01:32:36;;;;;;;;;;;;;;;15.86;77.84;101444.50;3585824;40;19976;-64
2022/08/21 01:35:04;;;;;;;;;;;;;;;15.59;77.31;101395.84;3584073;40;19947;-63
2022/08/21 01:37:30;;;;;;;;;;;;;;;15.80;76.89;101442.22;3585383;40;19967;-64
2022/08/21 01:39:55;;;;;;;;;;;;;;;15.78;77.46;101447.75;3585625;40;20182;-63
2022/08/21 01:42:21;;;;;;;;;;;;;;;15.76;77.54;101455.16;3586235;40;19940;-63
2022/08/21 01:44:46;;;;;;;;;;;;;;;15.67;77.65;101438.69;3586006;40;19955;-63
2022/08/21 01:47:14;;;;;;;;;;;;;;;15.77;76.78;101459.59;3585920;40;19936;-63
2022/08/21 01:49:42;;;;;;;;;;;;;;;15.66;77.16;101440.47;3584364;40;20257;-64
2022/08/21 01:52:08;;;;;;;;;;;;;;;15.72;77.47;101447.34;3586340;40;20025;-64
2022/08/21 01:54:34;;;;;;;;;;;;;;;15.66;77.63;101439.63;3586744;40;19951;-64
2022/08/21 01:57:00;;;;;;;;;;;;;;;15.67;77.57;101436.84;3586762;40;19932;-63
2022/08/21 01:59:27;;;;;;;;;;;;;;;15.67;77.20;101436.84;3584154;40;20261;-64
2022/08/21 02:01:55;;;;;;;;;;;;;;;15.67;77.47;101436.00;3584321;40;20499;-64
2022/08/21 02:04:21;;;;;;;;;;;;;;;15.69;77.25;101439.44;3585412;40;19947;-63
2022/08/21 02:06:47;;;;;;;;;;;;;;;15.68;77.29;101437.72;3585839;40;19935;-64
2022/08/21 02:09:13;;;;;;;;;;;;;;;15.67;77.28;101433.28;3583955;40;20271;-63
2022/08/21 02:11:40;;;;;;;;;;;;;;;15.65;76.97;101427.06;3586833;40;20248;-63
2022/08/21 02:14:11;;;;;;;;;;;;;;;15.60;77.85;101423.81;3582543;40;19943;-64
2022/08/21 02:16:38;;;;;;;;;;;;;;;15.61;77.25;101423.72;3585823;40;20259;-63
2022/08/21 02:19:04;;;;;;;;;;;;;;;15.60;77.08;101418.41;3582575;40;20009;-64
2022/08/21 02:21:30;;;;;;;;;;;;;;;15.59;77.23;101416.66;3583797;40;19928;-63
2022/08/21 02:23:56;;;;;;;;;;;;;;;15.52;77.81;101414.41;3584087;40;20201;-63
2022/08/21 02:26:21;;;;;;;;;;;;;;;15.44;77.80;101416.81;3584589;40;19994;-63
2022/08/21 02:28:47;;;;;;;;;;;;;;;15.44;78.47;101430.34;3586849;40;20287;-63
2022/08/21 02:31:13;;;;;;;;;;;;;;;15.36;78.56;101430.06;3583734;40;19940;-63
2022/08/21 02:33:39;;;;;;;;;;;;;;;15.40;78.83;101428.84;3584943;40;20387;-63
2022/08/21 02:36:05;;;;;;;;;;;;;;;15.40;79.06;101423.44;3584131;40;19971;-62
2022/08/21 02:38:34;;;;;;;;;;;;;;;15.41;78.83;101422.44;3583878;40;19940;-62
2022/08/21 02:41:00;;;;;;;;;;;;;;;15.45;78.95;101423.13;3583917;40;20241;-62
2022/08/21 02:43:28;;;;;;;;;;;;;;;15.33;78.16;101411.31;3585115;40;20008;-62
2022/08/21 02:45:56;;;;;;;;;;;;;;;15.44;78.14;101424.94;3583831;40;19928;-62
2022/08/21 02:48:26;;;;;;;;;;;;;;;15.43;78.02;101423.22;3583477;40;19940;-62
2022/08/21 02:50:56;;;;;;;;;;;;;;;15.39;78.22;101416.28;3587005;40;20274;-62
2022/08/21 02:53:22;;;;;;;;;;;;;;;15.35;78.30;101419.31;3584188;40;19984;-62
2022/08/21 02:55:51;;;;;;;;;;;;;;;15.33;77.93;101416.72;3584796;40;19990;-62
2022/08/21 02:58:24;;;;;;;;;;;;;;;15.32;78.20;101412.31;3583518;40;20349;-62
2022/08/21 03:00:49;;;;;;;;;;;;;;;15.31;78.09;101419.53;3584360;40;19944;-62
2022/08/21 03:03:15;;;;;;;;;;;;;;;15.30;77.82;101420.53;3583761;40;19946;-62
2022/08/21 03:05:43;;;;;;;;;;;;;;;15.23;78.10;101410.25;3587169;40;19936;-62
2022/08/21 03:08:11;;;;;;;;;;;;;;;15.23;78.10;101408.41;3584945;40;19976;-61
2022/08/21 03:10:40;;;;;;;;;;;;;;;15.25;77.63;101419.13;3585104;40;19934;-62
2022/08/21 03:13:06;;;;;;;;;;;;;;;15.22;77.64;101409.41;3582994;40;19972;-62
2022/08/21 03:15:32;;;;;;;;;;;;;;;15.21;77.96;101412.19;3585558;40;19935;-62
2022/08/21 03:17:58;;;;;;;;;;;;;;;15.22;77.63;101411.22;3586586;39;19935;-62
2022/08/21 03:20:27;;;;;;;;;;;;;;;15.20;77.69;101410.47;3584223;39;19927;-62
2022/08/21 03:22:54;;;;;;;;;;;;;;;14.95;77.36;101382.44;3585523;40;19932;-62
2022/08/21 03:25:24;;;;;;;;;;;;;;;15.13;77.17;101410.06;3586273;40;19943;-62
2022/08/21 03:27:49;;;;;;;;;;;;;;;15.14;77.18;101406.34;3584719;40;20033;-62
2022/08/21 03:30:19;;;;;;;;;;;;;;;14.90;77.65;101364.78;3585660;40;19940;-62
2022/08/21 03:32:45;;;;;;;;;;;;;;;15.14;77.59;101416.31;3585712;40;19964;-62
2022/08/21 03:35:11;;;;;;;;;;;;;;;15.15;78.05;101408.06;3582236;40;20487;-62
2022/08/21 03:37:37;;;;;;;;;;;;;;;15.16;77.66;101415.25;3583649;40;19943;-62
2022/08/21 03:40:05;;;;;;;;;;;;;;;15.16;77.63;101408.94;3583755;40;19935;-62
2022/08/21 03:42:30;;;;;;;;;;;;;;;15.11;78.29;101406.56;3583616;40;19939;-62
2022/08/21 03:44:56;;;;;;;;;;;;;;;15.09;77.87;101403.97;3585450;40;20285;-62
2022/08/21 03:47:22;;;;;;;;;;;;;;;15.05;78.05;101402.47;3586940;40;19944;-62
2022/08/21 03:49:48;;;;;;;;;;;;;;;15.04;77.89;101394.47;3585195;40;19939;-62
2022/08/21 03:52:13;;;;;;;;;;;;;;;15.00;78.33;101403.75;3584663;40;19935;-62
2022/08/21 03:54:40;;;;;;;;;;;;;;;14.99;78.64;101397.47;3583874;40;19966;-61
2022/08/21 03:57:06;;;;;;;;;;;;;;;14.95;78.35;101404.09;3585071;40;20182;-62
2022/08/21 03:59:31;;;;;;;;;;;;;;;14.89;78.91;101407.25;3584365;40;19932;-62
2022/08/21 04:02:01;;;;;;;;;;;;;;;14.88;78.77;101399.25;3582417;40;19942;-62
2022/08/21 04:04:28;;;;;;;;;;;;;;;14.88;78.88;101399.25;3584936;40;19977;-62
2022/08/21 04:06:54;;;;;;;;;;;;;;;14.88;78.66;101405.50;3583969;40;19932;-62
2022/08/21 04:09:20;;;;;;;;;;;;;;;14.88;78.98;101405.50;3584284;40;20279;-62
2022/08/21 04:11:46;;;;;;;;;;;;;;;14.86;78.89;101402.03;3584632;40;19950;-62
2022/08/21 04:14:14;;;;;;;;;;;;;;;14.85;78.87;101413.84;3585614;39;19935;-61
2022/08/21 04:16:40;;;;;;;;;;;;;;;14.85;79.08;101408.44;3583885;40;19947;-62
2022/08/21 04:19:07;;;;;;;;;;;;;;;14.81;79.01;101410.50;3584119;39;20293;-62
2022/08/21 04:21:37;;;;;;;;;;;;;;;14.82;79.19;101414.06;3583349;40;20254;-62
2022/08/21 04:24:03;;;;;;;;;;;;;;;14.79;79.70;101409.72;3583983;40;19942;-62
2022/08/21 04:26:30;;;;;;;;;;;;;;;14.80;79.13;101413.28;3584577;40;19940;-62
2022/08/21 04:28:57;;;;;;;;;;;;;;;14.76;79.21;101409.06;3583796;40;19963;-62
2022/08/21 04:31:23;;;;;;;;;;;;;;;14.59;79.07;101385.91;3584960;40;20306;-62
2022/08/21 04:33:49;;;;;;;;;;;;;;;14.79;78.99;101416.97;3583363;40;20223;-62
2022/08/21 04:36:14;;;;;;;;;;;;;;;14.77;79.25;101417.06;3584830;39;19982;-62
2022/08/21 04:38:40;;;;;;;;;;;;;;;14.77;79.16;101424.34;3584020;40;20294;-62
2022/08/21 04:41:06;;;;;;;;;;;;;;;14.78;79.31;101423.34;3583627;40;19943;-62
2022/08/21 04:43:32;;;;;;;;;;;;;;;14.70;79.29;101415.78;3589485;40;19931;-62
2022/08/21 04:46:00;;;;;;;;;;;;;;;14.73;78.87;101422.81;3584318;40;20248;-62
2022/08/21 04:48:26;;;;;;;;;;;;;;;14.72;79.00;101421.97;3583285;40;19986;-62
2022/08/21 04:51:13;;;;;;;;;;;;;;;14.70;78.88;101433.88;3588167;40;19932;-62
2022/08/21 04:53:45;;;;;;;;;;;;;;;14.66;79.30;101427.81;3585910;40;20033;-61
2022/08/21 04:56:35;;;;;;;;;;;;;;;14.66;79.29;101426.94;3582346;40;19966;-62
2022/08/21 04:59:11;;;;;;;;;;;;;;;14.62;79.12;101427.16;3585134;40;20103;-62
2022/08/21 05:01:39;;;;;;;;;;;;;;;14.60;79.51;101423.69;3585845;40;19968;-62
2022/08/21 05:04:10;;;;;;;;;;;;;;;14.57;79.74;101423.03;3583160;40;19944;-62
2022/08/21 05:06:41;;;;;;;;;;;;;;;14.61;79.82;101424.53;3586782;40;19947;-62
2022/08/21 05:09:09;;;;;;;;;;;;;;;14.66;78.93;101435.06;3583156;40;19984;-62
2022/08/21 05:11:36;;;;;;;;;;;;;;;14.67;79.05;101434.94;3588155;40;19940;-62
2022/08/21 05:14:03;;;;;;;;;;;;;;;14.73;79.20;101441.78;3586652;40;19942;-62
2022/08/21 05:16:29;;;;;;;;;;;;;;;14.73;79.07;101444.47;3588971;40;19931;-62
2022/08/21 05:18:54;;;;;;;;;;;;;;;14.75;79.05;101442.53;3585446;40;19936;-62
2022/08/21 05:21:20;;;;;;;;;;;;;;;14.76;79.09;101444.25;3585692;40;19952;-62
2022/08/21 05:23:46;;;;;;;;;;;;;;;14.80;79.47;101451.19;3590887;40;19940;-61
2022/08/21 05:26:11;;;;;;;;;;;;;;;14.84;78.61;101447.28;3589922;40;20259;-62
2022/08/21 05:28:37;;;;;;;;;;;;;;;14.88;78.86;101448.81;3587088;40;19936;-61
2022/08/21 05:31:02;;;;;;;;;;;;;;;14.90;78.83;101451.41;3586147;40;19939;-62
2022/08/21 05:33:28;;;;;;;;;;;;;;;14.93;78.42;101443.94;3588216;40;19936;-62
2022/08/21 05:35:57;;;;;;;;;;;;;;;14.94;78.07;101445.69;3587291;40;19944;-62
2022/08/21 05:38:24;;;;;;;;;;;;;;;15.00;78.23;101441.66;3587858;39;20012;-62
2022/08/21 05:40:50;;;;;;;;;;;;;;;15.01;78.00;101444.28;3586259;40;19932;-62
2022/08/21 05:43:16;;;;;;;;;;;;;;;15.07;78.16;101453.81;3583999;40;20013;-62
2022/08/21 05:45:42;;;;;;;;;;;;;;;15.12;78.03;101456.19;3584796;40;19940;-62
2022/08/21 05:48:17;;;;;;;;;;;;;;;15.12;77.81;101439.94;3585278;39;20250;-62
2022/08/21 05:50:44;;;;;;;;;;;;;;;15.19;77.75;101452.06;3588189;40;19940;-62
2022/08/21 05:53:10;;;;;;;;;;;;;;;15.20;78.00;101449.25;3584817;40;20030;-62
2022/08/21 05:55:37;;;;;;;;;;;;;;;15.26;77.30;101456.09;3586159;40;19929;-62
2022/08/21 05:58:03;;;;;;;;;;;;;;;15.27;77.77;101449.69;3586451;40;19967;-62
2022/08/21 06:00:29;;;;;;;;;;;;;;;15.33;77.36;101449.25;3584969;40;19928;-62
2022/08/21 06:02:54;;;;;;;;;;;;;;;15.40;77.46;101450.53;3587838;40;19939;-62
2022/08/21 06:05:20;;;;;;;;;;;;;;;15.46;77.00;101451.94;3588017;40;20202;-62
2022/08/21 06:07:45;;;;;;;;;;;;;;;15.51;76.94;101461.47;3585897;40;19939;-62
2022/08/21 06:10:10;;;;;;;;;;;;;;;15.58;76.69;101452.88;3586830;40;19939;-62
2022/08/21 06:12:36;;;;;;;;;;;;;;;15.61;77.06;101458.09;3584870;40;20009;-62
2022/08/21 06:15:02;;;;;;;;;;;;;;;15.68;76.74;101459.41;3586009;40;19940;-63
2022/08/21 06:17:28;;;;;;;;;;;;;;;15.74;76.01;101464.38;3586466;40;19950;-62
2022/08/21 06:19:54;;;;;;;;;;;;;;;15.81;76.24;101460.22;3586952;40;19935;-62
2022/08/21 06:22:20;;;;;;;;;;;;;;;15.59;75.76;101405.84;3587276;40;19948;-62
2022/08/21 06:24:46;;;;;;;;;;;;;;;15.93;75.90;101459.31;3584982;40;19972;-62
2022/08/21 06:27:12;;;;;;;;;;;;;;;15.99;75.96;101463.44;3586798;40;19943;-62
2022/08/21 06:29:37;;;;;;;;;;;;;;;16.07;75.33;101458.28;3583718;40;20236;-62
2022/08/21 06:32:04;;;;;;;;;;;;;;;16.15;75.91;101447.72;3585576;40;19952;-62
2022/08/21 06:34:29;;;;;;;;;;;;;;;16.24;75.47;101457.03;3584291;40;19985;-62
2022/08/21 06:36:55;;;;;;;;;;;;;;;16.30;75.57;101453.84;3585585;40;19936;-62
2022/08/21 06:39:21;;;;;;;;;;;;;;;16.47;75.59;101458.84;3585991;40;19928;-62
2022/08/21 06:41:47;;;;;;;;;;;;;;;16.50;75.48;101446.88;3585862;40;20021;-62
2022/08/21 06:44:16;;;;;;;;;;;;;;;16.73;74.84;101464.09;3583875;40;20446;-63
2022/08/21 06:46:41;;;;;;;;;;;;;;;16.86;74.84;101470.34;3584615;40;20005;-62
2022/08/21 06:49:07;;;;;;;;;;;;;;;17.00;74.56;101465.66;3584393;40;20166;-63
2022/08/21 06:51:32;;;;;;;;;;;;;;;17.16;74.26;101466.22;3585971;40;19946;-62
2022/08/21 06:53:58;;;;;;;;;;;;;;;17.28;73.52;101470.66;3584472;40;19948;-63
2022/08/21 06:56:23;;;;;;;;;;;;;;;17.46;73.23;101464.75;3587292;40;20369;-63
2022/08/21 06:58:49;;;;;;;;;;;;;;;17.57;73.19;101457.44;3586212;40;19936;-62
2022/08/21 07:01:14;;;;;;;;;;;;;;;17.73;72.79;101467.94;3584033;40;20294;-62
2022/08/21 07:03:42;;;;;;;;;;;;;;;17.92;72.36;101469.16;3587670;40;19948;-63
2022/08/21 07:06:10;;;;;;;;;;;;;;;18.15;72.67;101459.97;3587461;40;20038;-63
2022/08/21 07:08:37;;;;;;;;;;;;;;;18.36;70.99;101456.41;3588155;40;19940;-63
2022/08/21 07:11:07;;;;;;;;;;;;;;;18.54;70.52;101454.84;3585486;40;19932;-63
2022/08/21 07:13:32;;;;;;;;;;;;;;;18.73;69.95;101455.03;3587897;40;19936;-63
2022/08/21 07:15:58;;;;;;;;;;;;;;;18.88;69.79;101455.56;3588505;40;20183;-64
2022/08/21 07:18:23;;;;;;;;;;;;;;;19.10;68.98;101462.72;3587652;40;19962;-63
2022/08/21 07:20:50;;;;;;;;;;;;;;;19.29;68.70;101453.78;3587725;40;19936;-62
2022/08/21 07:23:24;;;;;;;;;;;;;;;19.45;68.47;101462.34;3586879;40;19940;-63
2022/08/21 07:25:50;;;;;;;;;;;;;;;19.58;67.79;101456.63;3586394;40;19935;-63
2022/08/21 07:28:15;;;;;;;;;;;;;;;19.62;66.64;101458.06;3586134;40;19955;-63
2022/08/21 07:30:42;;;;;;;;;;;;;;;19.68;67.70;101452.09;3586107;40;19944;-63
2022/08/21 07:33:07;;;;;;;;;;;;;;;19.79;67.58;101458.44;3584002;40;20236;-63
2022/08/21 07:35:33;;;;;;;;;;;;;;;19.87;66.50;101455.91;3585064;40;19936;-62
2022/08/21 07:37:58;;;;;;;;;;;;;;;19.91;66.69;101460.91;3585766;40;20248;-62
2022/08/21 07:40:24;;;;;;;;;;;;;;;20.03;67.11;101460.81;3586001;40;19947;-62
2022/08/21 07:42:51;;;;;;;;;;;;;;;20.16;66.60;101456.81;3585495;40;19942;-62
2022/08/21 07:45:19;;;;;;;;;;;;;;;20.36;65.75;101460.44;3585779;40;19944;-63
2022/08/21 07:47:45;;;;;;;;;;;;;;;20.10;65.70;101393.72;3586502;40;19928;-63
2022/08/21 07:50:13;;;;;;;;;;;;;;;20.70;64.61;101459.16;3585577;40;19943;-63
2022/08/21 07:52:40;;;;;;;;;;;;;;;20.82;64.30;101458.00;3586078;40;19936;-63
2022/08/21 07:55:07;;;;;;;;;;;;;;;20.95;63.40;101463.13;3584909;40;20276;-63
2022/08/21 07:57:33;;;;;;;;;;;;;;;21.06;63.60;101460.25;3586669;39;20296;-63
2022/08/21 07:59:58;;;;;;;;;;;;;;;21.22;62.80;101459.63;3585168;40;19947;-64
2022/08/21 08:02:27;;;;;;;;;;;;;;;21.26;62.26;101459.19;3586273;40;19944;-63
2022/08/21 08:04:53;;;;;;;;;;;;;;;21.36;61.64;101464.63;3587301;40;20324;-64
2022/08/21 08:07:18;;;;;;;;;;;;;;;21.42;61.46;101461.31;3585941;40;19951;-64
2022/08/21 08:09:44;;;;;;;;;;;;;;;21.50;61.12;101458.69;3584497;40;19932;-64
2022/08/21 08:12:10;;;;;;;;;;;;;;;21.62;60.80;101459.34;3584596;40;20016;-64
2022/08/21 08:14:35;;;;;;;;;;;;;;;21.70;60.61;101459.47;3586849;40;19940;-63
2022/08/21 08:17:02;;;;;;;;;;;;;;;21.80;60.27;101459.41;3586615;40;19938;-64
2022/08/21 08:19:28;;;;;;;;;;;;;;;22.02;60.50;101461.72;3586252;40;20177;-64
2022/08/21 08:21:53;;;;;;;;;;;;;;;22.25;59.98;101453.09;3585694;40;19931;-64
2022/08/21 08:24:19;;;;;;;;;;;;;;;22.34;58.71;101449.41;3584337;40;20048;-64
2022/08/21 08:26:44;;;;;;;;;;;;;;;22.40;58.37;101450.66;3586760;40;19942;-66
2022/08/21 08:29:10;;;;;;;;;;;;;;;22.59;58.50;101444.16;3586165;40;19935;-66
2022/08/21 08:31:35;;;;;;;;;;;;;;;22.84;57.87;101450.72;3583607;40;20151;-66
2022/08/21 08:34:01;;;;;;;;;;;;;;;22.99;56.87;101449.09;3583332;40;19944;-66
2022/08/21 08:36:38;;;;;;;;;;;;;;;23.12;56.47;101437.72;3585306;40;19943;-66
2022/08/21 08:39:05;;;;;;;;;;;;;;;23.36;57.31;101454.31;3583731;40;19940;-67
2022/08/21 08:41:32;;;;;;;;;;;;;;;23.49;55.45;101450.28;3587948;40;19931;-66
2022/08/21 08:44:03;;;;;;;;;;;;;;;23.51;55.33;101453.72;3584011;40;19943;-66
2022/08/21 08:46:42;;;;;;;;;;;;;;;23.64;54.21;101426.66;3583918;40;19940;-67
2022/08/21 08:49:18;;;;;;;;;;;;;;;24.05;55.06;101432.31;3584919;40;19943;-66
2022/08/21 08:51:51;;;;;;;;;;;;;;;24.27;53.70;101430.81;3584429;40;19928;-66
2022/08/21 08:54:39;;;;;;;;;;;;;;;24.39;53.09;101434.97;3585237;40;19995;-68
2022/08/21 08:57:13;;;;;;;;;;;;;;;24.35;51.89;101421.72;3585445;40;19935;-68
2022/08/21 08:59:43;;;;;;;;;;;;;;;24.46;51.48;101425.03;3587436;40;19944;-66
2022/08/21 09:02:14;;;;;;;;;;;;;;;24.41;50.67;101423.78;3587339;40;20197;-69
2022/08/21 09:04:41;;;;;;;;;;;;;;;24.45;52.32;101428.81;3587371;40;19935;-69
2022/08/21 09:07:16;;;;;;;;;;;;;;;24.60;52.29;101423.47;3586329;40;20278;-69
2022/08/21 09:10:02;;;;;;;;;;;;;;;24.70;51.78;101404.91;3587316;40;19989;-68
2022/08/21 09:12:37;;;;;;;;;;;;;;;24.99;50.61;101417.22;3586583;40;19932;-68
2022/08/21 09:15:23;;;;;;;;;;;;;;;25.12;50.21;101414.84;3587099;40;19936;-69
2022/08/21 09:18:01;;;;;;;;;;;;;;;25.15;50.08;101411.75;3586937;40;19932;-68
2022/08/21 09:21:11;;;;;;;;;;;;;;;25.33;50.09;101416.16;3585900;40;19992;-68
2022/08/21 09:24:00;;;;;;;;;;;;;;;25.39;48.80;101409.94;3587614;40;19946;-68
2022/08/21 09:26:35;;;;;;;;;;;;;;;25.47;49.40;101413.53;3583794;40;19942;-67
2022/08/21 09:29:00;;;;;;;;;;;;;;;25.38;48.08;101416.50;3586161;40;19944;-66
2022/08/21 09:31:32;;;;;;;;;;;;;;;25.28;48.46;101418.56;3585027;40;19974;-66
2022/08/21 09:34:04;;;;;;;;;;;;;;;25.18;49.15;101419.66;3583492;40;19940;-67
2022/08/21 09:36:42;;;;;;;;;;;;;;;25.07;47.82;101417.22;3584548;40;19956;-66
2022/08/21 09:39:10;;;;;;;;;;;;;;;24.87;48.47;101418.66;3584088;40;20164;-66
2022/08/21 09:41:38;;;;;;;;;;;;;;;24.75;47.17;101430.00;3588977;40;19932;-66
2022/08/21 09:44:07;;;;;;;;;;;;;;;24.59;47.60;101430.00;3588799;40;19947;-67
2022/08/21 09:46:33;;;;;;;;;;;;;;;24.35;49.21;101424.47;3587836;40;19939;-67
2022/08/21 09:49:02;;;;;;;;;;;;;;;24.45;49.20;101427.94;3585563;40;20375;-67
2022/08/21 09:51:36;;;;;;;;;;;;;;;24.72;47.16;101419.34;3588947;40;19932;-67
2022/08/21 09:54:04;;;;;;;;;;;;;;;24.95;48.16;101421.38;3586427;40;20142;-69
2022/08/21 09:59:33;;;;;;;;;;;;;;;25.32;45.10;101420.81;3588912;40;19942;-67
2022/08/21 10:02:27;;;;;;;;;;;;;;;25.74;46.26;101415.97;3584704;40;20210;-67
2022/08/21 10:04:57;;;;;;;;;;;;;;;26.05;45.48;101421.53;3585667;40;19937;-67
2022/08/21 10:07:27;;;;;;;;;;;;;;;25.92;44.76;101413.84;3588879;40;19935;-67
2022/08/21 10:10:17;;;;;;;;;;;;;;;25.91;45.07;101414.88;3587046;40;19939;-67
2022/08/21 10:13:07;;;;;;;;;;;;;;;25.81;43.19;101408.75;3587316;40;20268;-67
2022/08/21 10:16:05;;;;;;;;;;;;;;;25.33;44.39;101388.63;3589950;40;19939;-67
2022/08/21 10:18:43;;;;;;;;;;;;;;;25.54;45.85;101419.19;3588653;40;20000;-67
2022/08/21 10:21:43;;;;;;;;;;;;;;;25.68;45.64;101404.63;3585069;40;19940;-67
2022/08/21 10:24:23;;;;;;;;;;;;;;;25.65;45.54;101412.41;3587380;40;19946;-67
2022/08/21 10:27:34;;;;;;;;;;;;;;;25.76;43.85;101416.66;3587204;40;20385;-69
2022/08/21 10:30:32;;;;;;;;;;;;;;;25.78;42.14;101409.91;3586916;40;20021;-67
2022/08/21 10:33:33;;;;;;;;;;;;;;;25.80;43.46;101407.84;3578728;40;20198;-68
2022/08/21 10:36:20;;;;;;;;;;;;;;;25.98;43.66;101415.88;3583015;40;19944;-67
2022/08/21 10:39:24;;;;;;;;;;;;;;;25.77;43.79;101412.88;3585570;40;19934;-67
2022/08/21 10:42:09;;;;;;;;;;;;;;;25.58;44.94;101415.03;3587540;40;19928;-67
2022/08/21 10:44:44;;;;;;;;;;;;;;;25.46;46.03;101408.19;3589121;40;19931;-68
2022/08/21 10:47:27;;;;;;;;;;;;;;;25.37;44.31;101412.00;3584882;40;19997;-67
2022/08/21 10:50:26;;;;;;;;;;;;;;;25.58;44.87;101415.03;3585953;40;19936;-67
2022/08/21 10:53:16;;;;;;;;;;;;;;;25.68;43.62;101415.66;3584206;40;20254;-66
2022/08/21 10:55:46;;;;;;;;;;;;;;;25.51;44.23;101408.50;3584468;40;19940;-66
2022/08/21 10:58:21;;;;;;;;;;;;;;;25.47;43.75;101402.50;3587230;40;20478;-66
2022/08/21 11:00:53;;;;;;;;;;;;;;;25.44;44.05;101407.53;3588704;40;19936;-67
2022/08/21 11:03:36;;;;;;;;;;;;;;;25.37;44.39;101384.47;3585114;40;19971;-67
2022/08/21 11:06:13;;;;;;;;;;;;;;;25.38;43.96;101403.59;3586133;40;19948;-69
2022/08/21 11:08:45;;;;;;;;;;;;;;;25.19;44.22;101398.50;3586992;40;20005;-68
2022/08/21 11:11:11;;;;;;;;;;;;;;;25.20;45.20;101412.06;3586341;40;19943;-69
2022/08/21 11:13:45;;;;;;;;;;;;;;;25.27;45.89;101403.09;3587258;40;19939;-67
2022/08/21 11:16:41;;;;;;;;;;;;;;;25.79;44.36;101391.53;3583396;40;20263;-67
2022/08/21 11:19:17;;;;;;;;;;;;;;;26.10;44.17;101399.78;3583974;40;19944;-67
2022/08/21 11:21:51;;;;;;;;;;;;;;;26.16;43.15;101380.63;3583930;40;19962;-67
2022/08/21 11:24:31;;;;;;;;;;;;;;;26.55;41.81;101401.72;3586163;40;19940;-67
2022/08/21 11:27:42;;;;;;;;;;;;;;;26.49;41.07;101385.91;3583414;40;19932;-68
2022/08/21 11:30:09;;;;;;;;;;;;;;;26.72;41.68;101393.28;3557968;40;19932;-68
2022/08/21 11:32:57;;;;;;;;;;;;;;;26.88;40.18;101395.88;3557882;40;19941;-67
2022/08/21 11:35:31;;;;;;;;;;;;;;;27.41;40.70;101391.16;3576384;40;19948;-67
2022/08/21 11:37:57;;;;;;;;;;;;;;;27.79;38.89;101382.75;3584660;40;19928;-67
2022/08/21 11:40:58;;;;;;;;;;;;;;;28.30;37.54;101379.88;3585518;40;20139;-67
2022/08/21 11:43:37;;;;;;;;;;;;;;;28.45;35.81;101377.09;3585681;40;19932;-69
2022/08/21 11:46:19;;;;;;;;;;;;;;;28.12;37.35;101390.53;3584068;40;20225;-67
2022/08/21 11:49:12;;;;;;;;;;;;;;;27.64;36.65;101404.84;3585667;40;20274;-66
2022/08/21 11:51:40;;;;;;;;;;;;;;;27.27;37.95;101398.38;3585711;40;19932;-66
2022/08/21 11:54:33;;;;;;;;;;;;;;;27.43;36.54;101397.31;3584471;40;19932;-67
2022/08/21 11:57:08;;;;;;;;;;;;;;;27.61;37.15;101402.47;3584558;40;20002;-67
2022/08/21 11:59:39;;;;;;;;;;;;;;;27.41;35.87;101407.72;3586829;40;19939;-66
2022/08/21 12:02:14;;;;;;;;;;;;;;;27.35;37.13;101408.50;3581538;40;20285;-67
2022/08/21 12:04:57;;;;;;;;;;;;;;;27.93;38.12;101414.16;3585003;40;19936;-67
2022/08/21 12:07:37;;;;;;;;;;;;;;;28.42;34.09;101406.00;3585611;40;19940;-67
2022/08/21 12:10:08;;;;;;;;;;;;;;;27.89;35.21;101360.31;3584247;40;19935;-67
2022/08/21 12:12:36;;;;;;;;;;;;;;;27.62;36.41;101408.84;3585177;39;19932;-67
2022/08/21 12:15:14;;;;;;;;;;;;;;;27.22;36.69;101402.78;3583250;40;19940;-67
2022/08/21 12:17:51;;;;;;;;;;;;;;;26.86;37.95;101389.66;3585758;40;19948;-66
2022/08/21 12:20:20;;;;;;;;;;;;;;;26.73;38.17;101400.50;3583585;40;20215;-67
2022/08/21 12:23:04;;;;;;;;;;;;;;;27.05;39.99;101394.66;3583777;40;19943;-67
2022/08/21 12:25:45;;;;;;;;;;;;;;;27.63;36.93;101402.28;3582512;40;19932;-67
2022/08/21 12:28:21;;;;;;;;;;;;;;;27.95;36.44;101399.09;3582643;40;20317;-68
2022/08/21 12:30:48;;;;;;;;;;;;;;;28.56;37.41;101395.03;3585408;40;20256;-67
2022/08/21 12:33:30;;;;;;;;;;;;;;;29.07;34.87;101392.03;3583143;40;19998;-68
2022/08/21 12:36:13;;;;;;;;;;;;;;;29.32;34.29;101407.09;3587346;39;20064;-67
2022/08/21 12:39:00;;;;;;;;;;;;;;;29.24;33.49;101332.53;3585498;40;20349;-67
2022/08/21 12:41:31;;;;;;;;;;;;;;;29.88;34.92;101402.47;3586884;40;19931;-67
2022/08/21 12:44:16;;;;;;;;;;;;;;;29.80;33.73;101395.22;3584640;40;19976;-67
2022/08/21 12:46:58;;;;;;;;;;;;;;;29.85;33.51;101356.63;3585589;40;19932;-67
2022/08/21 12:49:32;;;;;;;;;;;;;;;30.57;31.87;101391.09;3587475;40;19942;-67
2022/08/21 12:52:16;;;;;;;;;;;;;;;30.85;33.01;101395.59;3583741;40;20264;-67
2022/08/21 12:54:43;;;;;;;;;;;;;;;30.99;32.62;101392.59;3593439;39;19942;-67
2022/08/21 12:57:22;;;;;;;;;;;;;;;31.06;32.68;101397.31;3585508;40;20264;-66